04:34
Airports
History
Links
Donate
Help keep this website running!
PayPal
Bitcoin
This page is community maintained. The information is intended for PC simulator navigation or reference.
Always use approved charts for navigation.
CBA4
Midway
Midway (CBA4)
Fort McPherson, Northwest Territories, Canada
(C)
Lat/Lng:67° 14' 28.36" N / 135° 18' 9.39" W
67.241211 / -135.302607
Elevation:1594'ft / 486mMSL
ID / ICAO:CBA4
Runways:1
Longest:09-27
Dirt 1,110m / 3,643ft
Controlled:Yes
Nearby Weather23:00 GMT 2017-09-21
Nearby weather at CZFM, FORT MCPHERSON located 16.5 nautical miles from CBA4
Altimeter: 30.14
Visibility: 35.0 statute miles
Wind: 6 knots (from 330°)
Temp: 4°c / 39°f
Humidity: %

METAR: CZFM 212300Z 33006KT 35SM BKN030 04/00 A3014 RMK SC7 CIG RAG 4.1/1.4/0.8/LAST OBS/NXT 221300Z SLP211

(Powered by phpweather)
Nearby VORs <50NM
Nearby NDBs
Runway 09 / 27
Dimensions:1110.4 x 29.9m 3643' x 98'ft
Surface:Dirt
Runway 09 [A]Runway 27 [B]
Heading:087°TH 267°TH
Lat:
Lng:
67° 14' 27.43"N
135° 18' 55.67"W
67° 14' 29.28"N
135° 17' 23.09"W
User Notes and Comments
67° 14' 28.36" N / 135° 18' 9.39" W
Distance To
Airport ID:
Nearby Airports
4 FORT MCPHERSON 16.5 NM
CZFM ( WX ) NE 45°
4 Eagle Plains 62.4 NM
AJ2 SSW 213°
4 Aklavik 68.3 NM
CYKD N
(U) INUVIK MIKE ZUBKO 87.5 NM
CYEV ( WX ) NNE 32°
4 Old Crow 122.5 NM
CYOC ( WX ) W 280°
4 Oglivie River 133.2 NM
CFS4 SW 215°
4 TUKTOYAKTUK 162.2 NM
CYUB ( WX ) NNE 20°
VFR Chart
Flight Planning at SkyVector.com